createdAt,value
2019-01-21T00:01:33.646Z,21.43
2019-01-21T00:04:03.958Z,20.57
2019-01-21T00:06:33.953Z,22.50
2019-01-21T00:09:05.805Z,20.77
2019-01-21T00:11:36.136Z,21.17
2019-01-21T00:14:06.653Z,22.17
2019-01-21T00:16:36.769Z,21.70
2019-01-21T00:19:07.108Z,21.17
2019-01-21T00:21:37.345Z,22.10
2019-01-21T00:24:07.557Z,22.33
2019-01-21T00:26:37.730Z,21.50
2019-01-21T00:29:08.024Z,19.50
2019-01-21T00:31:38.226Z,20.23
2019-01-21T00:34:08.333Z,22.03
2019-01-21T00:36:38.433Z,22.30
2019-01-21T00:39:08.959Z,22.70
2019-01-21T00:41:39.167Z,21.33
2019-01-21T00:44:09.297Z,19.27
2019-01-21T00:46:39.374Z,20.67
2019-01-21T00:49:09.447Z,21.93
2019-01-21T00:51:39.678Z,22.80
2019-01-21T00:54:09.876Z,23.67
2019-01-21T00:56:40.135Z,21.33
2019-01-21T00:59:10.122Z,19.10
2019-01-21T01:01:40.285Z,20.30
2019-01-21T01:04:10.429Z,19.77
2019-01-21T01:06:40.798Z,19.43
2019-01-21T01:09:10.920Z,19.93
2019-01-21T01:11:41.036Z,21.13
2019-01-21T01:14:11.185Z,19.47
2019-01-21T01:16:41.329Z,21.80
2019-01-21T01:19:11.504Z,20.17
2019-01-21T01:21:41.721Z,21.23
2019-01-21T01:24:11.706Z,23.20
2019-01-21T01:26:41.957Z,20.50
2019-01-21T01:29:11.926Z,22.67
2019-01-21T01:31:42.136Z,19.60
2019-01-21T01:34:12.160Z,21.23
2019-01-21T01:36:42.266Z,21.77
2019-01-21T01:39:12.554Z,21.97
2019-01-21T01:41:42.653Z,21.23
2019-01-21T01:44:12.704Z,18.73
2019-01-21T01:46:43.423Z,20.47
2019-01-21T01:49:13.425Z,23.27
2019-01-21T01:51:43.522Z,19.10
2019-01-21T01:54:13.814Z,19.50
2019-01-21T01:56:43.898Z,19.87
2019-01-21T01:59:14.387Z,19.50
2019-01-21T02:01:44.562Z,18.60
2019-01-21T02:04:14.706Z,18.60
2019-01-21T02:06:44.937Z,19.93
2019-01-21T02:09:15.041Z,20.97
2019-01-21T02:11:45.039Z,19.43
2019-01-21T02:14:15.060Z,20.23
2019-01-21T02:16:45.329Z,20.90
2019-01-21T02:19:15.352Z,20.83
2019-01-21T02:21:45.561Z,21.03
2019-01-21T02:24:19.230Z,21.97
2019-01-21T02:27:01.189Z,20.33
2019-01-21T02:30:08.025Z,20.77
2019-01-21T02:33:20.660Z,21.73
2019-01-21T02:36:06.097Z,22.57
2019-01-21T02:39:06.845Z,22.90
2019-01-21T02:41:50.347Z,22.93
2019-01-21T02:45:09.970Z,22.00
2019-01-21T02:48:11.879Z,21.67
2019-01-21T02:51:40.784Z,22.40
2019-01-21T02:54:50.841Z,20.63
2019-01-21T02:57:41.396Z,22.43
2019-01-21T03:01:04.230Z,22.93
2019-01-21T03:03:56.172Z,24.23
2019-01-21T03:07:10.436Z,23.10
2019-01-21T03:09:53.001Z,21.97
2019-01-21T03:13:21.825Z,25.03
2019-01-21T03:16:24.502Z,22.20
2019-01-21T03:19:28.060Z,23.70
2019-01-21T03:22:33.373Z,23.60
2019-01-21T03:25:48.561Z,21.37
2019-01-21T03:28:58.181Z,20.47
2019-01-21T03:32:11.130Z,22.67
2019-01-21T03:35:34.218Z,22.40
2019-01-21T03:38:36.377Z,21.43
2019-01-21T03:41:15.157Z,21.97
2019-01-21T03:44:32.441Z,21.67
2019-01-21T03:47:24.438Z,25.00
2019-01-21T03:50:45.060Z,22.73
2019-01-21T03:53:58.030Z,19.93
2019-01-21T03:56:49.675Z,21.27
2019-01-21T04:00:04.017Z,20.13
2019-01-21T04:03:06.896Z,21.30
2019-01-21T04:05:58.991Z,22.03
2019-01-21T04:08:57.097Z,19.27
2019-01-21T04:12:29.258Z,20.10
2019-01-21T04:15:57.971Z,21.10
2019-01-21T04:19:23.787Z,20.83
2019-01-21T04:22:01.970Z,21.73
2019-01-21T04:25:25.179Z,22.87
2019-01-21T04:28:41.983Z,25.57
2019-01-21T04:31:55.354Z,23.53
2019-01-21T04:34:46.372Z,22.17
2019-01-21T04:37:50.380Z,24.80
2019-01-21T04:40:50.728Z,22.17
2019-01-21T04:43:40.958Z,21.50
2019-01-21T04:46:28.986Z,21.67
2019-01-21T04:49:10.895Z,21.80
2019-01-21T04:52:22.680Z,23.63
2019-01-21T04:55:16.452Z,23.27
2019-01-21T04:58:21.154Z,23.27
2019-01-21T05:01:35.726Z,21.57
2019-01-21T05:04:19.769Z,22.27
2019-01-21T05:07:24.286Z,21.30
2019-01-21T05:10:40.892Z,22.13
2019-01-21T05:13:44.510Z,22.60
2019-01-21T05:17:01.067Z,24.17
2019-01-21T05:20:02.218Z,21.97
2019-01-21T05:23:03.008Z,22.60
2019-01-21T05:25:50.504Z,21.17
2019-01-21T05:29:13.526Z,23.23
2019-01-21T05:32:02.426Z,22.20
2019-01-21T05:35:26.038Z,21.33
2019-01-21T05:38:27.429Z,23.57
2019-01-21T05:41:39.254Z,19.53
2019-01-21T05:44:54.333Z,21.47
2019-01-21T05:48:01.089Z,21.40
2019-01-21T05:51:05.880Z,20.50
2019-01-21T05:54:07.349Z,20.77
2019-01-21T05:57:26.499Z,22.37
2019-01-21T06:00:42.832Z,22.70
2019-01-21T06:03:41.307Z,20.83
2019-01-21T06:06:48.192Z,20.30
2019-01-21T06:09:43.214Z,20.87
2019-01-21T06:13:00.597Z,21.07
2019-01-21T06:15:56.474Z,22.10
2019-01-21T06:18:36.674Z,24.63
2019-01-21T06:21:38.777Z,27.70
2019-01-21T06:24:28.053Z,27.37
2019-01-21T06:27:26.898Z,24.13
2019-01-21T06:30:56.124Z,25.20
2019-01-21T06:33:59.146Z,27.30
2019-01-21T06:36:48.321Z,27.83
2019-01-21T06:39:41.518Z,31.93
2019-01-21T06:42:57.238Z,27.87
2019-01-21T06:46:01.426Z,27.53
2019-01-21T06:49:04.822Z,28.57
2019-01-21T06:52:11.119Z,27.53
2019-01-21T06:55:24.559Z,28.23
2019-01-21T06:58:29.769Z,28.67
2019-01-21T07:01:26.677Z,28.77
2019-01-21T07:04:20.551Z,29.63
2019-01-21T07:07:20.642Z,29.40
2019-01-21T07:10:24.264Z,33.30
2019-01-21T07:13:16.011Z,33.70
2019-01-21T07:16:22.069Z,32.47
2019-01-21T07:19:31.975Z,30.90
2019-01-21T07:22:37.418Z,30.03
2019-01-21T07:25:54.283Z,32.67
2019-01-21T07:28:47.510Z,28.10
2019-01-21T07:31:58.430Z,27.50
2019-01-21T07:35:13.299Z,27.70
2019-01-21T07:38:07.998Z,24.63
2019-01-21T07:41:17.975Z,28.77
2019-01-21T07:44:27.452Z,28.23
2019-01-21T07:47:50.054Z,27.03
2019-01-21T07:50:44.265Z,27.50
2019-01-21T07:54:00.130Z,24.47
2019-01-21T07:57:16.930Z,27.10
2019-01-21T08:00:26.582Z,25.87
2019-01-21T08:03:48.942Z,26.53
2019-01-21T08:07:01.618Z,25.47
2019-01-21T08:10:02.868Z,27.73
2019-01-21T08:12:59.728Z,25.93
2019-01-21T08:16:09.509Z,27.93
2019-01-21T08:19:01.841Z,23.50
2019-01-21T08:21:47.005Z,24.07
2019-01-21T08:24:47.799Z,25.10
2019-01-21T08:27:42.857Z,26.07
2019-01-21T08:30:28.812Z,26.10
2019-01-21T08:33:32.827Z,24.80
2019-01-21T08:36:29.346Z,24.53
2019-01-21T08:39:26.476Z,25.17
2019-01-21T08:42:22.017Z,26.60
2019-01-21T08:45:25.887Z,25.17
2019-01-21T08:48:06.398Z,24.43
2019-01-21T08:50:53.157Z,25.87
2019-01-21T08:53:45.578Z,22.67
2019-01-21T08:56:43.266Z,25.00
2019-01-21T08:59:51.293Z,24.80
2019-01-21T09:02:55.699Z,27.03
2019-01-21T09:05:51.456Z,23.80
2019-01-21T09:09:17.407Z,25.97
2019-01-21T09:12:23.747Z,24.53
2019-01-21T09:15:31.087Z,23.10
2019-01-21T09:18:42.029Z,27.13
2019-01-21T09:21:49.427Z,21.73
2019-01-21T09:24:59.887Z,24.30
2019-01-21T09:28:11.401Z,23.13
2019-01-21T09:31:12.093Z,23.87
2019-01-21T09:34:20.021Z,23.60
2019-01-21T09:37:22.227Z,25.33
2019-01-21T09:40:50.018Z,22.87
2019-01-21T09:44:08.830Z,26.73
2019-01-21T09:46:48.231Z,24.40
2019-01-21T09:49:16.248Z,25.20
2019-01-21T09:52:01.186Z,24.47
2019-01-21T09:54:32.445Z,24.43
2019-01-21T09:57:05.925Z,27.27
2019-01-21T09:59:36.640Z,25.53
2019-01-21T10:02:08.930Z,24.53
2019-01-21T10:05:01.814Z,26.13
2019-01-21T10:08:24.685Z,22.53
2019-01-21T10:11:36.966Z,21.70
2019-01-21T10:14:40.850Z,23.20
2019-01-21T10:17:46.217Z,24.90
2019-01-21T10:20:44.810Z,23.53
2019-01-21T10:24:07.905Z,25.53
2019-01-21T10:27:07.453Z,24.73
2019-01-21T10:30:13.820Z,23.43
2019-01-21T10:33:15.982Z,25.13
2019-01-21T10:36:25.644Z,23.77
2019-01-21T10:39:26.058Z,24.37
2019-01-21T10:42:15.309Z,25.37
2019-01-21T10:45:20.429Z,26.20
2019-01-21T10:48:09.216Z,23.63
2019-01-21T10:51:38.084Z,26.00
2019-01-21T10:54:44.108Z,24.30
2019-01-21T10:57:22.673Z,25.30
2019-01-21T11:00:29.853Z,28.00
2019-01-21T11:03:27.085Z,25.07
2019-01-21T11:06:12.223Z,25.90
2019-01-21T11:09:19.185Z,31.70
2019-01-21T11:12:05.807Z,28.20
2019-01-21T11:15:06.923Z,24.87
2019-01-21T11:18:11.745Z,29.03
2019-01-21T11:21:31.303Z,31.77
2019-01-21T11:24:33.026Z,26.60
2019-01-21T11:27:28.084Z,27.13
2019-01-21T11:30:32.416Z,25.27
2019-01-21T11:33:38.142Z,27.20
2019-01-21T11:36:39.357Z,25.23
2019-01-21T11:39:32.824Z,24.10
2019-01-21T11:42:39.761Z,28.17
2019-01-21T11:45:31.453Z,26.60
2019-01-21T11:48:43.788Z,26.07
2019-01-21T11:51:38.877Z,28.77
2019-01-21T11:55:14.064Z,27.27
2019-01-21T11:58:31.055Z,24.97
2019-01-21T12:01:32.145Z,23.67
2019-01-21T12:04:14.978Z,26.93
2019-01-21T12:07:01.289Z,26.80
2019-01-21T12:10:07.136Z,26.53
2019-01-21T12:13:07.316Z,26.60
2019-01-21T12:16:01.722Z,27.83
2019-01-21T12:19:07.582Z,25.93
2019-01-21T12:22:30.497Z,25.23
2019-01-21T12:25:26.236Z,27.47
2019-01-21T12:28:34.215Z,27.87
2019-01-21T12:31:27.595Z,27.17
2019-01-21T12:34:32.130Z,24.53
2019-01-21T12:37:25.124Z,26.73
2019-01-21T12:40:13.545Z,30.73
2019-01-21T12:43:25.492Z,30.70
2019-01-21T12:46:19.915Z,26.90
2019-01-21T12:49:25.095Z,28.73
2019-01-21T12:52:35.127Z,30.57
2019-01-21T12:55:16.554Z,29.33
2019-01-21T12:58:27.688Z,26.93
2019-01-21T13:01:31.858Z,26.53
2019-01-21T13:04:51.835Z,28.53
2019-01-21T13:07:54.641Z,25.50
2019-01-21T13:10:55.397Z,29.17
2019-01-21T13:13:47.425Z,28.93
2019-01-21T13:17:29.645Z,27.93
2019-01-21T13:20:16.167Z,29.43
2019-01-21T13:23:48.213Z,31.70
2019-01-21T13:26:34.426Z,31.33
2019-01-21T13:29:27.051Z,31.37
2019-01-21T13:32:48.365Z,32.10
2019-01-21T13:36:02.798Z,28.50
2019-01-21T13:39:18.021Z,30.83
2019-01-21T13:42:15.617Z,30.67
2019-01-21T13:45:19.540Z,31.10
2019-01-21T13:48:20.519Z,31.93
2019-01-21T13:51:24.417Z,30.60
2019-01-21T13:54:20.144Z,29.07
2019-01-21T13:57:05.412Z,30.73
2019-01-21T14:00:18.940Z,30.87
2019-01-21T14:03:29.378Z,29.53
2019-01-21T14:06:43.452Z,27.60
2019-01-21T14:10:06.126Z,33.00
2019-01-21T14:13:03.873Z,29.67
2019-01-21T14:16:07.756Z,31.03
2019-01-21T14:19:26.272Z,29.20
2019-01-21T14:22:15.137Z,29.13
2019-01-21T14:25:16.940Z,31.00
2019-01-21T14:28:26.612Z,28.80
2019-01-21T14:31:15.025Z,30.07
2019-01-21T14:34:20.550Z,28.33
2019-01-21T14:37:25.816Z,28.93
2019-01-21T14:40:06.633Z,30.87
2019-01-21T14:43:01.038Z,31.73
2019-01-21T14:45:38.583Z,28.77
2019-01-21T14:48:52.379Z,29.43
2019-01-21T14:52:27.779Z,28.47
2019-01-21T14:55:34.428Z,28.17
2019-01-21T14:58:41.474Z,28.77
2019-01-21T15:01:43.084Z,27.30
2019-01-21T15:04:27.693Z,30.40
2019-01-21T15:07:21.667Z,28.83
2019-01-21T15:10:50.522Z,33.57
2019-01-21T15:13:54.335Z,31.20
2019-01-21T15:16:54.659Z,28.93
2019-01-21T15:19:55.837Z,32.90
2019-01-21T15:23:28.079Z,30.03
2019-01-21T15:26:32.386Z,31.70
2019-01-21T15:29:31.133Z,30.33
2019-01-21T15:32:39.274Z,28.93
2019-01-21T15:35:40.505Z,26.27
2019-01-21T15:38:54.859Z,28.67
2019-01-21T15:42:05.858Z,29.13
2019-01-21T15:45:19.895Z,28.07
2019-01-21T15:48:45.918Z,28.07
2019-01-21T15:52:00.837Z,30.27
2019-01-21T15:55:22.004Z,30.17
2019-01-21T15:58:36.542Z,32.80
2019-01-21T16:01:45.811Z,29.23
2019-01-21T16:04:50.131Z,29.23
2019-01-21T16:07:29.285Z,30.40
2019-01-21T16:10:43.223Z,28.37
2019-01-21T16:13:41.383Z,31.10
2019-01-21T16:16:32.356Z,32.23
2019-01-21T16:19:41.266Z,34.40
2019-01-21T16:22:44.891Z,30.20
2019-01-21T16:25:32.465Z,34.30
2019-01-21T16:28:46.079Z,32.77
2019-01-21T16:31:32.349Z,33.13
2019-01-21T16:34:36.757Z,33.80
2019-01-21T16:37:46.585Z,34.37
2019-01-21T16:40:39.467Z,31.97
2019-01-21T16:43:09.558Z,33.07
2019-01-21T16:45:39.800Z,35.30
2019-01-21T16:48:09.992Z,33.90
2019-01-21T16:50:40.079Z,32.73
2019-01-21T16:53:10.277Z,32.23
2019-01-21T16:55:40.467Z,30.27
2019-01-21T16:58:10.699Z,31.47
2019-01-21T17:00:40.814Z,33.67
2019-01-21T17:03:11.970Z,35.17
2019-01-21T17:05:42.106Z,34.13
2019-01-21T17:08:12.321Z,31.67
2019-01-21T17:10:42.521Z,33.57
2019-01-21T17:13:12.771Z,31.47
2019-01-21T17:15:43.075Z,32.33
2019-01-21T17:18:13.275Z,33.90
2019-01-21T17:20:43.454Z,30.80
2019-01-21T17:23:13.573Z,31.27
2019-01-21T17:25:43.649Z,37.37
2019-01-21T17:28:13.856Z,42.67
2019-01-21T17:30:43.965Z,40.77
2019-01-21T17:33:14.140Z,43.47
2019-01-21T17:35:44.157Z,52.03
2019-01-21T17:38:14.282Z,44.33
2019-01-21T17:40:44.611Z,44.80
2019-01-21T17:43:14.801Z,45.77
2019-01-21T17:45:44.863Z,52.90
2019-01-21T17:48:14.943Z,48.97
2019-01-21T17:50:45.009Z,48.77
2019-01-21T17:53:15.151Z,53.60
2019-01-21T17:55:45.481Z,49.77
2019-01-21T17:58:15.560Z,55.43
2019-01-21T18:00:45.700Z,51.77
2019-01-21T18:03:15.806Z,51.20
2019-01-21T18:05:45.903Z,49.87
2019-01-21T18:08:15.961Z,47.13
2019-01-21T18:10:46.141Z,52.07
2019-01-21T18:13:16.325Z,51.67
2019-01-21T18:15:46.435Z,49.47
2019-01-21T18:18:16.620Z,47.57
2019-01-21T18:20:46.669Z,48.40
2019-01-21T18:23:16.672Z,48.60
2019-01-21T18:25:46.983Z,46.57
2019-01-21T18:28:17.057Z,45.53
2019-01-21T18:30:47.188Z,47.10
2019-01-21T18:33:17.221Z,55.30
2019-01-21T18:35:47.325Z,57.60
2019-01-21T18:38:17.620Z,61.77
2019-01-21T18:40:47.752Z,61.77
2019-01-21T18:43:18.089Z,63.90
2019-01-21T18:45:48.143Z,62.07
2019-01-21T18:48:18.207Z,59.77
2019-01-21T18:50:48.467Z,60.47
2019-01-21T18:53:18.617Z,57.13
2019-01-21T18:55:48.677Z,54.77
2019-01-21T18:58:18.776Z,59.37
2019-01-21T19:00:48.798Z,61.87
2019-01-21T19:03:19.001Z,62.97
2019-01-21T19:05:49.398Z,72.90
2019-01-21T19:08:19.510Z,80.70
2019-01-21T19:10:49.621Z,77.03
2019-01-21T19:13:19.719Z,76.10
2019-01-21T19:15:49.795Z,73.53
2019-01-21T19:18:20.057Z,71.20
2019-01-21T19:20:50.248Z,73.00
2019-01-21T19:23:20.479Z,70.37
2019-01-21T19:25:50.725Z,63.43
2019-01-21T19:28:20.762Z,66.77
2019-01-21T19:30:50.829Z,65.90
2019-01-21T19:33:21.019Z,64.30
2019-01-21T19:35:51.317Z,63.73
2019-01-21T19:38:21.449Z,61.23
2019-01-21T19:40:51.535Z,61.10
2019-01-21T19:43:21.645Z,60.17
2019-01-21T19:45:51.974Z,55.70
2019-01-21T19:48:22.183Z,58.93
2019-01-21T19:50:52.384Z,58.00
2019-01-21T19:53:22.632Z,55.53
2019-01-21T19:55:52.731Z,54.97
2019-01-21T19:58:23.006Z,54.10
2019-01-21T20:00:53.090Z,51.93
2019-01-21T20:03:23.189Z,52.47
2019-01-21T20:05:53.278Z,54.07
2019-01-21T20:08:23.502Z,49.63
2019-01-21T20:10:53.717Z,52.60
2019-01-21T20:13:24.067Z,49.40
2019-01-21T20:15:55.493Z,50.20
2019-01-21T20:18:25.854Z,51.73
2019-01-21T20:20:56.237Z,50.77
2019-01-21T20:23:27.354Z,49.53
2019-01-21T20:25:58.343Z,48.37
2019-01-21T20:28:29.819Z,57.63
2019-01-21T20:31:01.782Z,59.30
2019-01-21T20:33:33.340Z,55.40
2019-01-21T20:36:04.528Z,57.90
2019-01-21T20:38:35.897Z,57.53
2019-01-21T20:41:07.923Z,61.23
2019-01-21T20:43:40.820Z,58.20
2019-01-21T20:46:12.701Z,59.73
2019-01-21T20:48:44.729Z,57.00
2019-01-21T20:51:15.721Z,53.40
2019-01-21T20:53:46.746Z,57.93
2019-01-21T20:56:18.042Z,56.53
2019-01-21T20:58:49.677Z,55.17
2019-01-21T21:01:21.565Z,52.00
2019-01-21T21:03:53.356Z,52.40
2019-01-21T21:06:25.414Z,51.97
2019-01-21T21:08:57.078Z,51.67
2019-01-21T21:11:28.477Z,51.13
2019-01-21T21:13:59.489Z,51.67
2019-01-21T21:16:30.689Z,52.03
2019-01-21T21:19:01.650Z,52.73
2019-01-21T21:21:32.298Z,49.43
2019-01-21T21:24:02.865Z,48.10
2019-01-21T21:26:33.565Z,47.20
2019-01-21T21:29:03.957Z,46.00
2019-01-21T21:31:34.121Z,48.07
2019-01-21T21:34:04.288Z,45.90
2019-01-21T21:36:34.632Z,46.00
2019-01-21T21:39:06.740Z,47.53
2019-01-21T21:41:36.921Z,46.03
2019-01-21T21:44:07.081Z,43.77
2019-01-21T21:46:37.337Z,46.57
2019-01-21T21:49:07.356Z,43.77
2019-01-21T21:51:37.457Z,45.43
2019-01-21T21:54:07.800Z,46.50
2019-01-21T21:56:37.791Z,45.97
2019-01-21T21:59:07.939Z,47.90
2019-01-21T22:01:40.113Z,46.13
2019-01-21T22:04:09.945Z,41.70
2019-01-21T22:06:39.946Z,40.27
2019-01-21T22:09:10.351Z,41.60
2019-01-21T22:11:40.841Z,41.70
2019-01-21T22:14:11.157Z,43.93
2019-01-21T22:16:41.468Z,39.60
2019-01-21T22:19:11.456Z,40.20
2019-01-21T22:21:41.657Z,40.07
2019-01-21T22:24:11.879Z,39.37
2019-01-21T22:26:41.894Z,41.20
2019-01-21T22:29:13.145Z,40.77
2019-01-21T22:31:43.285Z,41.30
2019-01-21T22:34:13.376Z,41.83
2019-01-21T22:36:43.682Z,40.47
2019-01-21T22:39:13.895Z,37.47
2019-01-21T22:41:44.058Z,38.77
2019-01-21T22:44:14.172Z,37.90
2019-01-21T22:46:44.167Z,40.30
2019-01-21T22:49:14.292Z,42.03
2019-01-21T22:51:44.437Z,43.03
2019-01-21T22:54:14.470Z,36.87
2019-01-21T22:56:44.531Z,43.37
2019-01-21T22:59:14.644Z,40.63
2019-01-21T23:01:44.884Z,40.00
2019-01-21T23:04:14.923Z,40.43
2019-01-21T23:06:45.059Z,39.53
2019-01-21T23:09:15.308Z,40.70
2019-01-21T23:11:45.893Z,43.73
2019-01-21T23:14:16.082Z,42.43
2019-01-21T23:16:46.296Z,40.83
2019-01-21T23:19:16.516Z,40.20
2019-01-21T23:21:46.747Z,40.50
2019-01-21T23:24:17.225Z,38.27
2019-01-21T23:26:47.374Z,41.33
2019-01-21T23:29:17.549Z,38.13
2019-01-21T23:31:47.673Z,42.57
2019-01-21T23:34:17.700Z,42.20
2019-01-21T23:36:48.067Z,42.80
2019-01-21T23:39:18.025Z,40.23
2019-01-21T23:41:48.206Z,41.90
2019-01-21T23:44:18.329Z,41.60
2019-01-21T23:46:48.461Z,41.93
2019-01-21T23:49:18.716Z,43.30
2019-01-21T23:51:48.775Z,47.43
2019-01-21T23:54:18.819Z,47.33
2019-01-21T23:56:48.865Z,44.13
2019-01-21T23:59:18.828Z,41.70
